Time;durP1;ratioP1;P1;durP2;ratioP2;P2;SDS_P1;SDS_P2;PMS_P1;PMS_P2;Temp;Humidity;BMP_temperature;BMP_pressure;BME280_temperature;BME280_humidity;BME280_pressure;Samples;Min_cycle;Max_cycle;Signal;HPM_P1;HPM_P2
2021/07/25 00:04:34;;;;;;;10.30;6.80;;;;;;;16.55;100.00;94874.28;10528562;28;20849;-82
2021/07/25 00:09:35;;;;;;;10.00;6.90;;;;;;;16.34;100.00;94869.34;10528701;28;20111;-82
2021/07/25 00:14:35;;;;;;;8.90;6.63;;;;;;;16.27;100.00;94881.69;10528320;28;20524;-81
2021/07/25 00:19:36;;;;;;;11.33;7.47;;;;;;;16.27;100.00;94889.84;10527766;28;20024;-82
2021/07/25 00:24:38;;;;;;;9.63;6.65;;;;;;;15.89;100.00;94886.31;10543638;28;20127;-81
2021/07/25 00:29:38;;;;;;;15.10;8.32;;;;;;;15.58;100.00;94885.28;10528790;28;20092;-81
2021/07/25 00:34:39;;;;;;;10.63;7.37;;;;;;;15.33;100.00;94879.25;10528139;28;20364;-82
2021/07/25 00:39:39;;;;;;;13.33;7.87;;;;;;;15.12;100.00;94881.53;10547775;28;20036;-81
2021/07/25 00:44:39;;;;;;;10.63;7.20;;;;;;;15.20;100.00;94880.84;10550276;28;20681;-81
2021/07/25 00:49:40;;;;;;;9.13;7.07;;;;;;;15.24;100.00;94881.03;10532470;28;20089;-81
2021/07/25 00:54:40;;;;;;;14.53;8.10;;;;;;;15.33;100.00;94865.69;10533945;28;20042;-81
2021/07/25 00:59:40;;;;;;;15.63;6.93;;;;;;;15.41;100.00;94875.06;10535306;28;20031;-81
2021/07/25 01:05:11;;;;;;;15.00;7.47;;;;;;;15.42;100.00;94877.47;10535431;28;20033;-81
2021/07/25 01:10:18;;;;;;;11.13;7.03;;;;;;;15.44;100.00;94869.81;10532204;28;20881;-82
2021/07/25 01:15:21;;;;;;;15.27;8.18;;;;;;;15.48;100.00;94868.13;10529054;28;20790;-82
2021/07/25 01:20:23;;;;;;;10.45;7.18;;;;;;;15.59;100.00;94865.22;10532385;28;20044;-81
2021/07/25 01:25:25;;;;;;;12.30;7.75;;;;;;;15.61;100.00;94865.72;10532600;28;20051;-82
2021/07/25 01:30:32;;;;;;;12.57;7.43;;;;;;;15.59;100.00;94857.09;10534536;28;20031;-81
2021/07/25 01:35:33;;;;;;;10.05;7.15;;;;;;;15.45;100.00;94865.22;10533493;28;20471;-81
2021/07/25 01:40:34;;;;;;;15.68;7.50;;;;;;;15.19;100.00;94863.78;10532786;28;20032;-81
2021/07/25 01:45:35;;;;;;;12.85;6.88;;;;;;;15.10;100.00;94859.34;10533476;28;20040;-81
2021/07/25 01:50:36;;;;;;;14.30;8.10;;;;;;;15.05;100.00;94857.53;10532244;28;20031;-81
2021/07/25 01:55:36;;;;;;;11.17;8.37;;;;;;;15.08;100.00;94858.84;10534378;28;20028;-81
2021/07/25 02:00:37;;;;;;;16.30;7.93;;;;;;;15.11;100.00;94853.66;10534918;28;20024;-81
2021/07/25 02:05:37;;;;;;;16.92;8.13;;;;;;;15.16;100.00;94863.59;10534935;28;20093;-81
2021/07/25 02:10:42;;;;;;;10.60;7.07;;;;;;;15.11;100.00;94867.19;10534306;28;20047;-81
2021/07/25 02:15:43;;;;;;;11.23;7.65;;;;;;;15.07;100.00;94882.44;10533071;28;20059;-81
2021/07/25 02:20:44;;;;;;;15.73;7.78;;;;;;;14.94;100.00;94881.28;10532468;28;20036;-81
2021/07/25 02:25:44;;;;;;;10.73;6.88;;;;;;;14.95;100.00;94879.38;10530099;28;20055;-81
2021/07/25 02:30:45;;;;;;;11.00;7.23;;;;;;;14.83;100.00;94880.66;10532535;28;20460;-81
2021/07/25 02:35:45;;;;;;;11.47;8.40;;;;;;;14.75;100.00;94875.94;10534278;28;20035;-82
2021/07/25 02:40:46;;;;;;;14.23;8.25;;;;;;;14.54;100.00;94872.72;10551451;28;20034;-82
2021/07/25 02:45:46;;;;;;;11.50;8.43;;;;;;;14.53;100.00;94881.94;10535915;28;20085;-82
2021/07/25 02:50:46;;;;;;;10.23;7.10;;;;;;;14.52;100.00;94881.09;10535701;28;20031;-82
2021/07/25 02:55:47;;;;;;;8.77;7.00;;;;;;;14.58;100.00;94871.03;10532822;28;20027;-81
2021/07/25 03:00:47;;;;;;;9.73;6.33;;;;;;;14.56;100.00;94869.72;10531264;28;20432;-82
2021/07/25 03:05:48;;;;;;;10.30;7.15;;;;;;;14.64;100.00;94869.88;10532186;28;20174;-82
2021/07/25 03:10:48;;;;;;;10.70;6.87;;;;;;;14.68;100.00;94879.00;10532749;28;20032;-82
2021/07/25 03:15:49;;;;;;;13.57;6.78;;;;;;;14.68;100.00;94884.41;10514373;28;20031;-82
2021/07/25 03:20:49;;;;;;;12.30;7.13;;;;;;;14.66;100.00;94889.31;10531102;28;20157;-81
2021/07/25 03:25:49;;;;;;;10.00;6.60;;;;;;;14.67;100.00;94895.53;10528713;28;20075;-81
2021/07/25 03:30:50;;;;;;;22.98;8.93;;;;;;;14.62;100.00;94903.69;10545370;28;20030;-81
2021/07/25 03:35:51;;;;;;;11.25;7.93;;;;;;;14.66;100.00;94907.44;10529642;28;20437;-81
2021/07/25 03:40:52;;;;;;;12.80;6.97;;;;;;;14.69;100.00;94915.78;10545919;28;20058;-81
2021/07/25 03:45:53;;;;;;;18.42;6.35;;;;;;;14.75;100.00;94921.91;10529929;28;20044;-82
2021/07/25 03:50:55;;;;;;;11.68;7.32;;;;;;;14.67;100.00;94926.09;10529044;28;20507;-80
2021/07/25 03:55:55;;;;;;;11.00;7.38;;;;;;;14.75;100.00;94923.81;10544505;28;20111;-81
2021/07/25 04:00:57;;;;;;;16.15;8.32;;;;;;;14.76;100.00;94939.75;10528092;28;20028;-81
2021/07/25 04:05:57;;;;;;;17.55;8.63;;;;;;;14.79;100.00;94930.22;10528883;28;20060;-81
2021/07/25 04:10:58;;;;;;;17.20;8.63;;;;;;;14.72;100.00;94941.44;10529607;28;20114;-81
2021/07/25 04:15:58;;;;;;;17.33;8.33;;;;;;;14.85;100.00;94940.69;10536511;28;20077;-81
2021/07/25 04:20:58;;;;;;;12.60;8.50;;;;;;;14.85;100.00;94954.22;10537142;28;20320;-81
2021/07/25 04:25:59;;;;;;;14.13;8.23;;;;;;;15.14;100.00;94949.69;10536024;28;20804;-81
2021/07/25 04:30:59;;;;;;;17.48;9.23;;;;;;;15.27;100.00;94946.22;10535215;28;20105;-81
2021/07/25 04:36:00;;;;;;;20.83;10.60;;;;;;;15.51;100.00;94951.47;10536070;28;20039;-81
2021/07/25 04:41:01;;;;;;;18.88;10.48;;;;;;;15.70;100.00;94954.13;10535718;28;20605;-81
2021/07/25 04:46:07;;;;;;;16.98;10.70;;;;;;;16.34;100.00;94958.84;10534685;28;20126;-81
2021/07/25 04:51:10;;;;;;;17.35;10.35;;;;;;;16.50;100.00;94953.88;10535385;28;20024;-81
2021/07/25 04:56:13;;;;;;;18.23;10.65;;;;;;;16.92;100.00;94960.00;10536245;28;20055;-81
2021/07/25 05:01:18;;;;;;;22.10;11.52;;;;;;;17.48;100.00;94967.06;10535903;28;20024;-81
2021/07/25 05:06:21;;;;;;;16.35;9.75;;;;;;;17.82;100.00;94963.72;10517825;28;20138;-81
2021/07/25 05:11:33;;;;;;;17.17;9.95;;;;;;;18.27;100.00;94960.84;10534967;28;20047;-81
2021/07/25 05:16:49;;;;;;;17.55;8.77;;;;;;;19.03;100.00;94952.63;10534822;28;20487;-81
2021/07/25 05:22:03;;;;;;;15.05;9.23;;;;;;;19.91;100.00;94959.53;10534077;28;20024;-81
2021/07/25 05:27:04;;;;;;;18.42;9.07;;;;;;;20.25;100.00;94965.94;10533338;28;20040;-81
2021/07/25 05:32:04;;;;;;;13.82;8.77;;;;;;;20.99;100.00;94968.38;10534412;28;20024;-81
2021/07/25 05:37:04;;;;;;;13.15;7.85;;;;;;;21.08;100.00;94962.84;10534130;28;20020;-81
2021/07/25 05:42:05;;;;;;;12.83;7.63;;;;;;;21.78;100.00;94962.16;10532836;28;20020;-80
2021/07/25 05:47:05;;;;;;;10.77;6.22;;;;;;;22.50;94.67;94970.00;10533135;28;20016;-81
2021/07/25 05:52:06;;;;;;;12.33;5.73;;;;;;;23.02;87.59;94966.47;10532845;28;20028;-81
2021/07/25 05:57:06;;;;;;;8.23;5.20;;;;;;;23.27;81.33;94968.34;10528562;28;20024;-81
2021/07/25 06:02:07;;;;;;;10.73;5.53;;;;;;;22.63;84.86;94979.81;10528818;28;20115;-81
2021/07/25 06:07:07;;;;;;;9.37;4.87;;;;;;;23.66;81.75;94965.88;10528815;28;20028;-81
2021/07/25 06:12:07;;;;;;;8.97;5.43;;;;;;;24.66;75.38;94966.81;10528626;28;20289;-81
2021/07/25 06:17:08;;;;;;;5.72;4.28;;;;;;;25.32;67.08;94975.28;10526133;28;20032;-81
2021/07/25 06:22:08;;;;;;;7.40;4.73;;;;;;;26.29;61.29;94973.53;10549406;28;20024;-81
2021/07/25 06:27:09;;;;;;;8.23;4.63;;;;;;;27.43;55.55;94968.09;10570226;28;20124;-81
2021/07/25 06:32:09;;;;;;;8.60;4.67;;;;;;;28.17;49.69;94969.28;10550443;28;20807;-82
2021/07/25 06:37:09;;;;;;;8.20;4.77;;;;;;;28.68;51.17;94969.72;10570499;28;20012;-82
2021/07/25 06:42:11;;;;;;;7.73;5.33;;;;;;;26.80;57.96;94975.16;10570231;28;20028;-82
2021/07/25 06:47:11;;;;;;;9.70;6.18;;;;;;;24.36;72.83;94983.75;10549892;28;20027;-81
2021/07/25 06:52:12;;;;;;;11.40;5.93;;;;;;;23.37;83.48;94985.13;10566243;28;20100;-81
2021/07/25 06:57:12;;;;;;;11.57;6.23;;;;;;;25.04;77.24;94979.03;10569288;28;20027;-81
2021/07/25 07:02:12;;;;;;;10.97;5.97;;;;;;;27.22;60.26;94968.59;10568075;28;20032;-82
2021/07/25 07:07:13;;;;;;;14.33;5.00;;;;;;;28.87;52.08;94968.63;10536023;28;20116;-81
2021/07/25 07:12:13;;;;;;;7.80;5.30;;;;;;;30.21;46.87;94964.41;10526504;28;20028;-81
2021/07/25 07:17:13;;;;;;;10.23;5.40;;;;;;;31.01;43.71;94966.78;10527322;28;20293;-81
2021/07/25 07:22:30;;;;;;;10.07;5.83;;;;;;;31.88;40.94;94960.09;10528218;28;20417;-81
2021/07/25 07:27:32;;;;;;;8.15;5.20;;;;;;;32.90;38.75;94970.06;10528488;28;20044;-81
2021/07/25 07:32:32;;;;;;;8.00;5.10;;;;;;;33.36;36.32;94965.22;10528998;28;20020;-81
2021/07/25 07:37:33;;;;;;;9.40;5.20;;;;;;;32.22;37.30;94957.50;10527887;28;20093;-81
2021/07/25 07:42:33;;;;;;;8.97;5.70;;;;;;;32.48;37.95;94950.53;10528041;28;20031;-81
2021/07/25 07:47:34;;;;;;;9.73;5.30;;;;;;;33.92;36.37;94941.84;10534880;28;20084;-81
2021/07/25 07:52:34;;;;;;;9.50;5.23;;;;;;;34.19;37.33;94947.41;10541062;28;20028;-81
2021/07/25 07:57:35;;;;;;;8.80;4.80;;;;;;;35.15;33.45;94952.59;10540796;28;20028;-81
2021/07/25 08:02:36;;;;;;;13.90;5.60;;;;;;;35.38;33.53;94957.34;10540037;28;20440;-81
2021/07/25 08:07:37;;;;;;;12.90;5.47;;;;;;;36.12;31.75;94952.59;10556106;28;20028;-81
2021/07/25 08:12:37;;;;;;;10.95;5.22;;;;;;;36.50;31.24;94951.34;10539923;28;20019;-81
2021/07/25 08:17:38;;;;;;;10.13;5.43;;;;;;;37.03;30.88;94945.63;10539269;28;20046;-81
2021/07/25 08:22:38;;;;;;;12.10;4.78;;;;;;;37.08;30.10;94940.25;10537604;28;20063;-81
2021/07/25 08:27:39;;;;;;;8.80;4.57;;;;;;;36.86;29.74;94939.25;10539215;28;20040;-81
2021/07/25 08:32:39;;;;;;;8.70;3.72;;;;;;;37.73;28.17;94934.84;10555077;28;20018;-82
2021/07/25 08:37:40;;;;;;;8.07;3.77;;;;;;;37.67;28.09;94936.66;10539847;28;20028;-81
2021/07/25 08:42:47;;;;;;;21.10;11.25;;;;;;;37.49;27.88;94940.75;10538599;28;20080;-81
2021/07/25 08:47:54;;;;;;;4.60;3.40;;;;;;;38.13;26.56;94931.66;10540356;28;20028;-81
2021/07/25 08:52:55;;;;;;;6.72;3.47;;;;;;;39.04;26.00;94926.69;10539552;28;20057;-81
2021/07/25 08:58:04;;;;;;;9.75;4.07;;;;;;;40.02;24.44;94927.50;10536057;28;20479;-82
2021/07/25 09:03:09;;;;;;;6.53;5.00;;;;;;;40.50;23.51;94924.47;10532035;28;20509;-81
2021/07/25 09:08:10;;;;;;;22.42;20.67;;;;;;;40.58;23.93;94925.72;10532119;28;20139;-81
2021/07/25 09:13:10;;;;;;;171.70;159.23;;;;;;;41.42;22.78;94909.66;10532287;28;20426;-81
2021/07/25 09:18:10;;;;;;;135.37;122.33;;;;;;;40.27;22.86;94906.06;10532754;28;20407;-82
2021/07/25 09:23:20;;;;;;;3.87;2.70;;;;;;;40.91;22.28;94902.56;10532012;28;20048;-81
2021/07/25 09:28:25;;;;;;;3.95;2.58;;;;;;;39.56;22.15;94897.09;10533274;28;20093;-82
2021/07/25 09:33:33;;;;;;;4.68;2.20;;;;;;;39.72;22.78;94900.97;10531721;28;20036;-81
2021/07/25 09:38:34;;;;;;;4.78;2.40;;;;;;;39.73;22.89;94896.88;10531923;28;20546;-81
2021/07/25 09:43:35;;;;;;;5.35;2.75;;;;;;;39.82;22.55;94892.09;10531172;28;20026;-80
2021/07/25 09:48:35;;;;;;;4.20;2.50;;;;;;;41.55;21.85;94886.91;10531007;28;20028;-82
2021/07/25 09:53:44;;;;;;;15.90;2.50;;;;;;;41.00;19.94;94877.25;10547295;28;20028;-82
2021/07/25 09:58:44;;;;;;;3.45;2.33;;;;;;;42.00;19.16;94881.59;10530069;28;20028;-82
2021/07/25 10:03:45;;;;;;;2.35;1.60;;;;;;;39.82;18.75;94878.00;10529725;28;20032;-82
2021/07/25 10:08:46;;;;;;;4.07;1.93;;;;;;;39.00;19.29;94884.66;10527853;28;20073;-82
2021/07/25 10:13:47;;;;;;;2.92;1.77;;;;;;;40.43;18.91;94885.28;10528975;28;20030;-82
2021/07/25 10:18:48;;;;;;;10.35;1.90;;;;;;;40.31;19.19;94872.91;10531147;28;20024;-82
2021/07/25 10:23:57;;;;;;;6.07;2.17;;;;;;;37.57;20.46;94879.66;10531440;28;20052;-81
2021/07/25 10:28:58;;;;;;;3.47;1.95;;;;;;;36.60;21.86;94877.47;10532067;28;20798;-81
2021/07/25 10:34:01;;;;;;;3.97;2.17;;;;;;;40.25;19.71;94861.47;10530334;28;20099;-82
2021/07/25 10:39:02;;;;;;;4.30;1.83;;;;;;;40.86;18.57;94855.31;10530259;28;20144;-82
2021/07/25 10:44:03;;;;;;;2.38;1.55;;;;;;;41.33;17.97;94851.19;10529930;28;20697;-81
2021/07/25 10:49:04;;;;;;;3.25;1.95;;;;;;;43.29;17.21;94854.56;10528557;28;20501;-82
2021/07/25 10:54:47;;;;;;;3.45;1.80;;;;;;;42.78;16.77;94841.47;10528964;28;20020;-82
2021/07/25 10:59:52;;;;;;;2.58;1.50;;;;;;;39.60;17.65;94838.69;10519303;28;20932;-81
2021/07/25 11:04:56;;;;;;;2.58;1.60;;;;;;;39.52;17.73;94859.09;10531292;28;20039;-82
2021/07/25 11:10:02;;;;;;;3.83;1.65;;;;;;;38.85;19.38;94838.63;10530244;28;20932;-82
2021/07/25 11:15:07;;;;;;;3.80;2.63;;;;;;;35.17;22.90;94841.19;10530971;28;20036;-82
2021/07/25 11:20:07;;;;;;;5.00;2.45;;;;;;;32.83;26.17;94845.66;10531403;28;20032;-82
2021/07/25 11:25:07;;;;;;;4.05;2.70;;;;;;;31.22;28.12;94839.38;10531020;28;20052;-82
2021/07/25 11:30:08;;;;;;;3.80;3.00;;;;;;;30.80;29.45;94839.94;10531007;28;20032;-81
2021/07/25 11:35:08;;;;;;;4.15;2.90;;;;;;;30.74;29.54;94836.00;10530691;28;20065;-82
2021/07/25 11:40:10;;;;;;;4.30;2.87;;;;;;;30.47;28.72;94830.13;10529809;28;20034;-82
2021/07/25 11:45:10;;;;;;;3.58;2.47;;;;;;;29.64;29.89;94832.91;10531079;28;20036;-82
2021/07/25 11:50:11;;;;;;;3.92;2.95;;;;;;;29.75;30.52;94828.19;10529229;28;20925;-82
2021/07/25 11:55:11;;;;;;;4.57;3.10;;;;;;;29.75;29.66;94821.81;10529588;28;20024;-82
2021/07/25 12:00:12;;;;;;;3.78;2.75;;;;;;;29.65;30.38;94820.63;10529784;28;20024;-82
2021/07/25 12:05:13;;;;;;;4.53;3.20;;;;;;;29.65;30.51;94810.38;10528825;28;20032;-82
2021/07/25 12:10:13;;;;;;;4.53;3.30;;;;;;;29.46;30.31;94817.06;10525364;28;20032;-82
2021/07/25 12:15:13;;;;;;;4.03;2.93;;;;;;;29.11;30.83;94815.78;10530857;28;20032;-82
2021/07/25 12:20:19;;;;;;;4.93;2.57;;;;;;;29.00;31.34;94812.19;10545416;28;20032;-81
2021/07/25 12:25:20;;;;;;;6.20;3.13;;;;;;;28.81;32.13;94805.78;10523634;28;20048;-82
2021/07/25 12:30:21;;;;;;;9.35;3.70;;;;;;;28.55;33.32;94804.09;10523389;28;20039;-81
2021/07/25 12:35:23;;;;;;;5.15;3.47;;;;;;;28.84;33.30;94808.97;10532703;28;20031;-81
2021/07/25 12:40:31;;;;;;;5.35;3.35;;;;;;;28.98;33.11;94797.94;10517826;28;20039;-81
2021/07/25 12:45:31;;;;;;;7.07;3.92;;;;;;;28.95;32.96;94795.97;10537285;28;20036;-82
2021/07/25 12:56:09;;;;;;;9.85;3.88;;;;;;;28.29;33.25;94786.56;10537206;28;20051;-82
2021/07/25 13:06:29;;;;;;;4.05;3.00;;;;;;;28.52;32.98;94770.88;10536583;28;20103;-81
2021/07/25 13:11:32;;;;;;;7.57;2.95;;;;;;;28.39;32.46;94762.94;10537005;28;20034;-81
2021/07/25 13:16:37;;;;;;;6.10;3.25;;;;;;;28.25;33.01;94763.66;10518765;28;20038;-81
2021/07/25 13:21:38;;;;;;;9.45;3.42;;;;;;;28.23;34.20;94752.19;10536490;28;20107;-81
2021/07/25 13:26:39;;;;;;;6.50;3.47;;;;;;;28.22;33.86;94747.06;10535715;28;20108;-81
2021/07/25 13:31:40;;;;;;;7.78;3.42;;;;;;;28.16;33.69;94754.13;10536342;28;20030;-81
2021/07/25 13:36:40;;;;;;;6.20;3.08;;;;;;;28.21;33.80;94751.78;10535083;28;20070;-81
2021/07/25 13:41:40;;;;;;;6.63;3.80;;;;;;;28.19;34.20;94756.09;10535601;28;20035;-81
2021/07/25 13:46:48;;;;;;;3.50;2.90;;;;;;;28.10;34.09;94765.56;10534413;28;20119;-81
2021/07/25 13:51:48;;;;;;;6.60;3.30;;;;;;;28.06;33.74;94756.47;10535694;28;20124;-81
2021/07/25 13:56:49;;;;;;;5.80;3.30;;;;;;;27.89;34.93;94763.41;10527671;28;20027;-81
2021/07/25 14:01:49;;;;;;;8.82;3.55;;;;;;;27.83;35.45;94744.84;10531765;28;21106;-81
2021/07/25 14:06:50;;;;;;;6.93;3.40;;;;;;;27.98;34.23;94749.28;10532101;28;20166;-81
2021/07/25 14:11:50;;;;;;;5.43;3.53;;;;;;;27.91;35.16;94746.47;10533325;28;20032;-82
2021/07/25 14:16:51;;;;;;;5.10;3.10;;;;;;;28.02;34.91;94746.53;10532951;28;20038;-81
2021/07/25 14:21:51;;;;;;;5.15;3.40;;;;;;;27.93;34.32;94757.91;10533234;28;20116;-81
2021/07/25 14:26:51;;;;;;;5.82;3.17;;;;;;;27.99;34.19;94755.56;10534300;28;20071;-82
2021/07/25 14:31:52;;;;;;;3.83;2.63;;;;;;;27.91;34.04;94757.50;10535126;28;20099;-82
2021/07/25 14:36:52;;;;;;;5.07;3.40;;;;;;;27.90;34.97;94751.19;10549340;28;20040;-81
2021/07/25 14:41:52;;;;;;;9.73;3.67;;;;;;;27.90;34.76;94753.16;10533304;28;20096;-81
2021/07/25 14:46:53;;;;;;;4.27;2.87;;;;;;;27.94;34.03;94743.72;10532860;28;20555;-81
2021/07/25 14:51:53;;;;;;;4.87;3.10;;;;;;;28.02;34.42;94754.84;10532469;28;20471;-81
2021/07/25 14:56:54;;;;;;;5.40;2.72;;;;;;;28.05;34.53;94746.56;10530853;28;20035;-82
2021/07/25 15:01:54;;;;;;;6.73;3.00;;;;;;;28.06;34.64;94747.34;10531697;28;20046;-81
2021/07/25 15:06:55;;;;;;;3.97;2.57;;;;;;;28.05;34.32;94749.34;10531620;28;20032;-81
2021/07/25 15:11:55;;;;;;;9.02;2.97;;;;;;;28.09;35.37;94750.16;10530933;28;20530;-81
2021/07/25 15:16:57;;;;;;;5.67;3.13;;;;;;;27.97;35.37;94744.91;10530922;28;20028;-81
2021/07/25 15:21:59;;;;;;;7.47;3.47;;;;;;;27.93;35.35;94749.63;10531263;28;20036;-81
2021/07/25 15:26:59;;;;;;;5.43;3.42;;;;;;;27.73;35.15;94733.31;10531826;28;20055;-82
2021/07/25 15:32:00;;;;;;;7.23;3.20;;;;;;;27.73;35.74;94732.53;10532343;28;20031;-81
2021/07/25 15:37:00;;;;;;;5.57;3.27;;;;;;;27.72;35.82;94742.78;10531714;28;20058;-81
2021/07/25 15:42:00;;;;;;;5.80;3.50;;;;;;;27.64;35.25;94743.91;10531352;28;20398;-81
2021/07/25 15:47:01;;;;;;;4.13;2.63;;;;;;;27.65;35.82;94734.44;10530902;28;20039;-81
2021/07/25 15:52:07;;;;;;;7.43;3.72;;;;;;;27.59;35.87;94736.78;10553651;28;20035;-74
2021/07/25 15:57:08;;;;;;;6.57;3.55;;;;;;;27.47;36.38;94747.31;10576734;28;20028;-74
2021/07/25 16:02:08;;;;;;;4.83;3.00;;;;;;;27.38;36.40;94744.88;10557409;28;20031;-74
2021/07/25 16:07:08;;;;;;;5.43;3.30;;;;;;;27.45;36.88;94740.22;10575458;27;20043;-74
2021/07/25 16:12:12;;;;;;;4.77;3.03;;;;;;;27.47;36.67;94747.31;10572644;28;20276;-74
2021/07/25 16:17:16;;;;;;;4.93;3.05;;;;;;;27.40;36.26;94748.84;10573530;28;20710;-74
2021/07/25 16:22:16;;;;;;;6.72;3.35;;;;;;;27.39;36.57;94739.00;10573770;28;20084;-74
2021/07/25 16:27:16;;;;;;;4.87;3.07;;;;;;;27.36;36.44;94736.19;10533703;28;20584;-74
2021/07/25 16:32:17;;;;;;;4.83;2.93;;;;;;;27.40;36.58;94745.28;10529217;28;20098;-74
2021/07/25 16:37:17;;;;;;;5.50;3.13;;;;;;;27.31;36.17;94740.06;10531172;28;20448;-74
2021/07/25 16:42:20;;;;;;;7.50;3.90;;;;;;;27.21;36.95;94747.09;10529323;28;20042;-74
2021/07/25 16:47:20;;;;;;;6.47;3.55;;;;;;;27.19;37.43;94746.66;10528335;28;20086;-73
2021/07/25 16:52:21;;;;;;;3.63;2.97;;;;;;;27.14;38.72;94752.53;10530114;28;20043;-73
2021/07/25 16:57:21;;;;;;;5.90;3.03;;;;;;;27.16;38.66;94757.69;10531361;28;20034;-73
2021/07/25 17:02:22;;;;;;;5.60;3.17;;;;;;;27.04;38.30;94761.50;10531854;28;20036;-73
2021/07/25 17:07:22;;;;;;;6.50;2.77;;;;;;;26.87;38.64;94765.66;10531416;28;20661;-73
2021/07/25 17:12:22;;;;;;;6.07;3.07;;;;;;;26.75;39.16;94764.75;10531696;28;20173;-73
2021/07/25 17:17:23;;;;;;;9.67;3.33;;;;;;;26.67;40.17;94768.56;10531100;28;20057;-73
2021/07/25 17:22:24;;;;;;;4.00;3.10;;;;;;;26.49;40.81;94773.06;10546609;28;20065;-73
2021/07/25 17:27:25;;;;;;;5.55;3.72;;;;;;;26.33;41.76;94781.50;10593206;27;20051;-73
2021/07/25 17:32:26;;;;;;;9.93;3.08;;;;;;;26.23;43.04;94792.03;10560269;27;20084;-73
2021/07/25 17:37:27;;;;;;;5.47;3.22;;;;;;;26.18;45.31;94799.81;10595206;27;20035;-74
2021/07/25 17:42:27;;;;;;;7.28;3.70;;;;;;;26.07;48.46;94802.44;10542840;27;20077;-74
2021/07/25 17:47:28;;;;;;;5.17;3.70;;;;;;;25.70;51.50;94805.75;10576414;27;20037;-74
2021/07/25 17:52:28;;;;;;;11.88;3.88;;;;;;;25.65;52.56;94795.88;10599312;27;20027;-74
2021/07/25 17:57:30;;;;;;;10.37;4.07;;;;;;;25.60;53.12;94807.19;10591829;27;20084;-74
2021/07/25 18:02:31;;;;;;;6.85;4.18;;;;;;;25.42;53.82;94804.94;10590872;27;20367;-74
2021/07/25 18:07:32;;;;;;;8.57;3.92;;;;;;;25.21;54.01;94812.78;10610164;27;20033;-74
2021/07/25 18:12:32;;;;;;;4.57;3.60;;;;;;;25.08;55.24;94829.44;10570482;28;20463;-74
2021/07/25 18:17:32;;;;;;;9.63;3.87;;;;;;;25.09;55.88;94835.75;10570354;28;20043;-73
2021/07/25 18:22:33;;;;;;;8.15;4.05;;;;;;;24.89;57.29;94841.28;10569630;28;20086;-72
2021/07/25 18:27:33;;;;;;;10.13;4.00;;;;;;;24.70;58.59;94853.03;10568957;28;20058;-73
2021/07/25 18:32:34;;;;;;;14.03;4.27;;;;;;;24.54;60.13;94855.03;10569449;28;20024;-73
2021/07/25 18:37:34;;;;;;;10.20;4.50;;;;;;;24.47;60.47;94860.38;10569327;28;20433;-74
2021/07/25 18:42:34;;;;;;;11.23;4.07;;;;;;;24.41;60.91;94862.59;10568671;28;20074;-73
2021/07/25 18:47:35;;;;;;;7.73;4.37;;;;;;;24.31;61.40;94869.47;10563847;28;20035;-74
2021/07/25 18:52:35;;;;;;;7.80;4.25;;;;;;;24.29;62.73;94866.25;10526270;28;20044;-74
2021/07/25 18:57:38;;;;;;;7.40;5.10;;;;;;;24.08;62.82;94880.28;10580763;27;20415;-74
2021/07/25 19:02:40;;;;;;;10.00;4.22;;;;;;;23.91;64.96;94889.69;10582966;27;20764;-74
2021/07/25 19:07:40;;;;;;;9.35;4.35;;;;;;;23.82;65.62;94889.03;10529921;28;20039;-74
2021/07/25 19:12:41;;;;;;;6.93;4.83;;;;;;;23.67;67.58;94898.88;10541365;28;20028;-74
2021/07/25 19:17:41;;;;;;;8.00;4.65;;;;;;;23.52;68.62;94906.72;10542458;28;20274;-73
2021/07/25 19:22:42;;;;;;;8.43;4.07;;;;;;;23.37;71.00;94922.03;10553369;27;20031;-73
2021/07/25 19:27:42;;;;;;;10.05;4.63;;;;;;;23.30;72.26;94924.56;10616255;27;20072;-73
2021/07/25 19:32:42;;;;;;;9.70;4.30;;;;;;;23.23;74.26;94924.38;10562333;27;20076;-73
2021/07/25 19:37:43;;;;;;;6.77;4.23;;;;;;;22.94;78.71;94929.03;10586084;27;20771;-74
2021/07/25 19:42:43;;;;;;;5.93;3.70;;;;;;;22.74;81.74;94925.31;10576290;27;20039;-73
2021/07/25 19:47:43;;;;;;;7.40;4.50;;;;;;;22.67;84.25;94922.38;10558623;28;20436;-73
2021/07/25 19:52:44;;;;;;;8.27;4.77;;;;;;;22.55;86.74;94925.94;10564879;28;20050;-73
2021/07/25 19:57:44;;;;;;;7.80;4.57;;;;;;;22.42;86.70;94919.66;10579712;28;20031;-73
2021/07/25 20:02:44;;;;;;;6.83;4.23;;;;;;;22.11;87.96;94933.94;10582742;28;20027;-73
2021/07/25 20:07:45;;;;;;;7.03;4.40;;;;;;;21.92;87.47;94938.03;10589181;28;20023;-73
2021/07/25 20:12:45;;;;;;;6.60;4.43;;;;;;;21.81;86.00;94934.94;10608137;28;20467;-73
2021/07/25 20:17:46;;;;;;;5.13;3.70;;;;;;;21.71;86.72;94943.56;10607427;28;20269;-73
2021/07/25 20:22:46;;;;;;;5.63;4.30;;;;;;;21.77;87.46;94944.16;10607982;28;20146;-73
2021/07/25 20:27:46;;;;;;;11.50;4.65;;;;;;;21.72;88.97;94947.13;10607587;27;20039;-73
2021/07/25 20:32:47;;;;;;;12.57;4.87;;;;;;;21.29;94.46;94949.94;10607036;28;20075;-73
2021/07/25 20:37:47;;;;;;;7.60;4.43;;;;;;;21.06;96.82;94949.50;10607320;28;20027;-73
2021/07/25 20:42:48;;;;;;;11.77;4.13;;;;;;;21.10;97.81;94955.91;10607514;27;20292;-73
2021/07/25 20:47:50;;;;;;;8.23;4.72;;;;;;;21.19;97.29;94958.53;10607762;27;20888;-73
2021/07/25 20:52:53;;;;;;;7.38;4.70;;;;;;;20.92;99.40;94960.72;10588795;27;20027;-73
2021/07/25 20:57:53;;;;;;;7.70;4.82;;;;;;;20.86;98.80;94966.69;10614540;27;20031;-74
2021/07/25 21:02:54;;;;;;;8.30;4.45;;;;;;;20.84;98.47;94975.22;10586442;27;20043;-73
2021/07/25 21:07:56;;;;;;;10.57;4.80;;;;;;;20.88;97.56;94980.84;10572790;28;20104;-73
2021/07/25 21:12:56;;;;;;;9.00;4.60;;;;;;;20.82;97.97;94982.97;10571970;28;20081;-73
2021/07/25 21:17:57;;;;;;;6.93;4.90;;;;;;;20.82;100.00;94996.63;10592252;27;20428;-73
2021/07/25 21:22:57;;;;;;;6.40;4.60;;;;;;;20.55;100.00;94995.16;10613235;27;20352;-74
2021/07/25 21:27:57;;;;;;;13.50;5.40;;;;;;;20.23;100.00;94987.28;10612936;27;20019;-74
2021/07/25 21:32:58;;;;;;;7.17;4.70;;;;;;;20.09;100.00;94989.44;10556379;28;20790;-74
2021/07/25 21:37:58;;;;;;;10.27;4.87;;;;;;;20.20;100.00;95001.59;10571329;28;20028;-73
2021/07/25 21:42:58;;;;;;;10.33;4.60;;;;;;;20.19;100.00;95007.38;10571049;28;20027;-73
2021/07/25 21:47:59;;;;;;;8.02;5.43;;;;;;;20.33;100.00;95005.22;10571261;28;20063;-74
2021/07/25 21:52:59;;;;;;;6.43;4.27;;;;;;;20.34;100.00;95011.50;10570815;28;20031;-73
2021/07/25 21:58:00;;;;;;;10.93;4.57;;;;;;;20.40;99.03;95004.72;10570316;28;20283;-73
2021/07/25 22:03:03;;;;;;;6.90;4.40;;;;;;;20.28;100.00;95003.47;10570297;28;20023;-73
2021/07/25 22:08:03;;;;;;;7.18;4.40;;;;;;;20.22;100.00;95014.91;10569130;28;20039;-73
2021/07/25 22:13:04;;;;;;;8.98;4.70;;;;;;;20.24;98.98;95007.22;10569389;28;20023;-73
2021/07/25 22:18:04;;;;;;;10.10;4.22;;;;;;;20.23;97.44;95009.13;10570130;28;20035;-73
2021/07/25 22:23:04;;;;;;;5.27;4.30;;;;;;;20.31;93.42;94996.56;10568841;28;20024;-74
2021/07/25 22:28:05;;;;;;;7.83;4.50;;;;;;;20.25;95.78;95001.41;10575275;27;20041;-73
2021/07/25 22:33:06;;;;;;;6.40;4.07;;;;;;;20.31;95.83;95008.28;10587962;27;20596;-74
2021/07/25 22:38:06;;;;;;;4.63;3.72;;;;;;;20.32;92.73;95015.34;10627027;27;20022;-73
2021/07/25 22:43:06;;;;;;;7.40;3.70;;;;;;;20.39;91.32;95008.59;10571171;27;20031;-73
2021/07/25 22:48:17;;;;;;;7.07;3.80;;;;;;;20.53;90.05;95009.16;10568436;28;20031;-72
2021/07/25 22:53:17;;;;;;;7.47;3.72;;;;;;;20.54;89.28;95010.75;10602836;27;20031;-73
2021/07/25 22:58:17;;;;;;;11.80;3.97;;;;;;;20.59;89.12;95007.03;10610149;27;20026;-73
2021/07/25 23:03:18;;;;;;;11.65;4.07;;;;;;;20.61;89.52;95008.28;10581358;27;20481;-73
2021/07/25 23:08:19;;;;;;;6.20;3.85;;;;;;;20.55;89.57;95015.06;10568135;28;20027;-73
2021/07/25 23:13:19;;;;;;;8.30;3.77;;;;;;;20.48;90.97;95026.53;10567665;28;20364;-73
2021/07/25 23:18:19;;;;;;;6.87;3.50;;;;;;;20.32;92.74;95022.75;10576847;27;20471;-73
2021/07/25 23:23:20;;;;;;;5.73;4.03;;;;;;;20.15;94.65;95021.69;10609327;27;20095;-73